sensor_id;sensor_type;location;lat;lon;timestamp;P1;durP1;ratioP1;P2;durP2;ratioP2
317;SDS011;146;53.448;10.228;2023-12-22T00:01:05;15.13;;;5.67;;
317;SDS011;146;53.448;10.228;2023-12-22T00:03:35;18.30;;;7.07;;
317;SDS011;146;53.448;10.228;2023-12-22T00:06:02;21.37;;;5.67;;
317;SDS011;146;53.448;10.228;2023-12-22T00:08:46;17.90;;;6.20;;
317;SDS011;146;53.448;10.228;2023-12-22T00:11:15;24.77;;;5.90;;
317;SDS011;146;53.448;10.228;2023-12-22T00:13:42;13.63;;;5.77;;
317;SDS011;146;53.448;10.228;2023-12-22T00:16:15;10.13;;;5.20;;
317;SDS011;146;53.448;10.228;2023-12-22T00:18:44;17.83;;;5.63;;
317;SDS011;146;53.448;10.228;2023-12-22T00:21:12;13.77;;;5.77;;
317;SDS011;146;53.448;10.228;2023-12-22T00:23:39;15.47;;;5.10;;
317;SDS011;146;53.448;10.228;2023-12-22T00:26:09;10.20;;;4.43;;
317;SDS011;146;53.448;10.228;2023-12-22T00:28:36;16.83;;;5.10;;
317;SDS011;146;53.448;10.228;2023-12-22T00:31:03;11.00;;;6.13;;
317;SDS011;146;53.448;10.228;2023-12-22T00:33:32;19.53;;;6.07;;
317;SDS011;146;53.448;10.228;2023-12-22T00:36:01;12.60;;;5.30;;
317;SDS011;146;53.448;10.228;2023-12-22T00:38:28;10.30;;;5.20;;
317;SDS011;146;53.448;10.228;2023-12-22T00:40:57;15.10;;;5.90;;
317;SDS011;146;53.448;10.228;2023-12-22T00:43:27;12.13;;;4.47;;
317;SDS011;146;53.448;10.228;2023-12-22T00:46:02;14.53;;;4.57;;
317;SDS011;146;53.448;10.228;2023-12-22T00:48:31;15.20;;;4.57;;
317;SDS011;146;53.448;10.228;2023-12-22T00:50:58;12.67;;;4.67;;
317;SDS011;146;53.448;10.228;2023-12-22T00:53:26;12.57;;;3.93;;
317;SDS011;146;53.448;10.228;2023-12-22T00:55:53;15.80;;;4.70;;
317;SDS011;146;53.448;10.228;2023-12-22T00:58:22;14.13;;;4.70;;
317;SDS011;146;53.448;10.228;2023-12-22T01:00:52;12.23;;;4.27;;
317;SDS011;146;53.448;10.228;2023-12-22T01:03:22;9.27;;;3.90;;
317;SDS011;146;53.448;10.228;2023-12-22T01:05:52;15.67;;;4.57;;
317;SDS011;146;53.448;10.228;2023-12-22T01:08:20;10.57;;;3.77;;
317;SDS011;146;53.448;10.228;2023-12-22T01:10:47;9.33;;;3.97;;
317;SDS011;146;53.448;10.228;2023-12-22T01:13:14;15.83;;;4.43;;
317;SDS011;146;53.448;10.228;2023-12-22T01:15:44;14.43;;;4.23;;
317;SDS011;146;53.448;10.228;2023-12-22T01:18:13;12.90;;;3.70;;
317;SDS011;146;53.448;10.228;2023-12-22T01:20:40;14.27;;;4.70;;
317;SDS011;146;53.448;10.228;2023-12-22T01:23:07;13.93;;;3.50;;
317;SDS011;146;53.448;10.228;2023-12-22T01:25:39;12.33;;;3.60;;
317;SDS011;146;53.448;10.228;2023-12-22T01:28:11;8.93;;;3.60;;
317;SDS011;146;53.448;10.228;2023-12-22T01:30:37;8.53;;;2.83;;
317;SDS011;146;53.448;10.228;2023-12-22T01:33:07;10.70;;;3.23;;
317;SDS011;146;53.448;10.228;2023-12-22T01:35:34;7.07;;;1.97;;
317;SDS011;146;53.448;10.228;2023-12-22T01:38:00;4.13;;;2.10;;
317;SDS011;146;53.448;10.228;2023-12-22T01:40:27;10.93;;;3.17;;
317;SDS011;146;53.448;10.228;2023-12-22T01:42:59;5.70;;;2.10;;
317;SDS011;146;53.448;10.228;2023-12-22T01:45:27;7.30;;;2.43;;
317;SDS011;146;53.448;10.228;2023-12-22T01:47:57;3.03;;;1.93;;
317;SDS011;146;53.448;10.228;2023-12-22T01:50:27;4.90;;;2.77;;
317;SDS011;146;53.448;10.228;2023-12-22T01:52:54;4.60;;;2.10;;
317;SDS011;146;53.448;10.228;2023-12-22T01:55:21;5.13;;;1.60;;
317;SDS011;146;53.448;10.228;2023-12-22T01:57:48;4.53;;;1.40;;
317;SDS011;146;53.448;10.228;2023-12-22T02:00:20;1.43;;;0.97;;
317;SDS011;146;53.448;10.228;2023-12-22T02:02:47;2.23;;;0.90;;
317;SDS011;146;53.448;10.228;2023-12-22T02:05:17;1.90;;;1.20;;
317;SDS011;146;53.448;10.228;2023-12-22T02:07:45;2.97;;;1.60;;
317;SDS011;146;53.448;10.228;2023-12-22T02:10:12;2.90;;;1.57;;
317;SDS011;146;53.448;10.228;2023-12-22T02:12:41;3.50;;;2.10;;
317;SDS011;146;53.448;10.228;2023-12-22T02:15:10;7.20;;;2.33;;
317;SDS011;146;53.448;10.228;2023-12-22T02:17:42;4.27;;;1.87;;
317;SDS011;146;53.448;10.228;2023-12-22T02:20:15;4.80;;;2.03;;
317;SDS011;146;53.448;10.228;2023-12-22T02:22:44;4.97;;;2.30;;
317;SDS011;146;53.448;10.228;2023-12-22T02:25:10;4.60;;;1.93;;
317;SDS011;146;53.448;10.228;2023-12-22T02:27:42;7.60;;;2.77;;
317;SDS011;146;53.448;10.228;2023-12-22T02:30:12;9.47;;;2.90;;
317;SDS011;146;53.448;10.228;2023-12-22T02:32:47;7.73;;;3.03;;
317;SDS011;146;53.448;10.228;2023-12-22T02:35:17;4.03;;;2.40;;
317;SDS011;146;53.448;10.228;2023-12-22T02:37:47;8.70;;;2.67;;
317;SDS011;146;53.448;10.228;2023-12-22T02:40:15;6.73;;;2.47;;
317;SDS011;146;53.448;10.228;2023-12-22T02:42:43;6.77;;;2.00;;
317;SDS011;146;53.448;10.228;2023-12-22T02:45:12;5.93;;;2.70;;
317;SDS011;146;53.448;10.228;2023-12-22T02:47:43;5.80;;;2.23;;
317;SDS011;146;53.448;10.228;2023-12-22T02:50:10;9.37;;;2.50;;
317;SDS011;146;53.448;10.228;2023-12-22T02:52:39;5.97;;;1.90;;
317;SDS011;146;53.448;10.228;2023-12-22T02:55:10;5.40;;;2.17;;
317;SDS011;146;53.448;10.228;2023-12-22T02:57:37;6.00;;;2.40;;
317;SDS011;146;53.448;10.228;2023-12-22T03:00:04;5.20;;;2.10;;
317;SDS011;146;53.448;10.228;2023-12-22T03:02:32;4.70;;;2.00;;
317;SDS011;146;53.448;10.228;2023-12-22T03:05:01;5.93;;;2.40;;
317;SDS011;146;53.448;10.228;2023-12-22T03:07:31;1.63;;;1.30;;
317;SDS011;146;53.448;10.228;2023-12-22T03:10:01;2.93;;;1.10;;
317;SDS011;146;53.448;10.228;2023-12-22T03:12:29;6.43;;;1.27;;
317;SDS011;146;53.448;10.228;2023-12-22T03:14:56;5.20;;;1.30;;
317;SDS011;146;53.448;10.228;2023-12-22T03:17:26;2.80;;;1.67;;
317;SDS011;146;53.448;10.228;2023-12-22T03:19:53;3.77;;;1.87;;
317;SDS011;146;53.448;10.228;2023-12-22T03:22:23;2.57;;;1.20;;
317;SDS011;146;53.448;10.228;2023-12-22T03:24:50;1.90;;;1.10;;
317;SDS011;146;53.448;10.228;2023-12-22T03:27:22;2.43;;;0.83;;
317;SDS011;146;53.448;10.228;2023-12-22T03:29:51;4.20;;;1.13;;
317;SDS011;146;53.448;10.228;2023-12-22T03:32:20;1.20;;;1.10;;
317;SDS011;146;53.448;10.228;2023-12-22T03:34:47;4.37;;;0.90;;
317;SDS011;146;53.448;10.228;2023-12-22T03:37:14;4.23;;;0.70;;
317;SDS011;146;53.448;10.228;2023-12-22T03:39:41;4.43;;;1.10;;
317;SDS011;146;53.448;10.228;2023-12-22T03:42:11;4.30;;;1.00;;
317;SDS011;146;53.448;10.228;2023-12-22T03:44:38;2.00;;;1.07;;
317;SDS011;146;53.448;10.228;2023-12-22T03:47:09;2.77;;;1.07;;
317;SDS011;146;53.448;10.228;2023-12-22T03:49:36;0.97;;;0.70;;
317;SDS011;146;53.448;10.228;2023-12-22T03:52:03;3.53;;;1.13;;
317;SDS011;146;53.448;10.228;2023-12-22T03:54:32;1.80;;;1.07;;
317;SDS011;146;53.448;10.228;2023-12-22T03:56:59;2.33;;;1.13;;
317;SDS011;146;53.448;10.228;2023-12-22T03:59:26;3.07;;;1.30;;
317;SDS011;146;53.448;10.228;2023-12-22T04:01:53;3.10;;;1.20;;
317;SDS011;146;53.448;10.228;2023-12-22T04:04:25;4.83;;;1.23;;
317;SDS011;146;53.448;10.228;2023-12-22T04:06:57;6.67;;;1.63;;
317;SDS011;146;53.448;10.228;2023-12-22T04:09:27;4.00;;;2.37;;
317;SDS011;146;53.448;10.228;2023-12-22T04:11:57;4.50;;;1.20;;
317;SDS011;146;53.448;10.228;2023-12-22T04:14:24;7.23;;;1.63;;
317;SDS011;146;53.448;10.228;2023-12-22T04:16:51;4.23;;;1.23;;
317;SDS011;146;53.448;10.228;2023-12-22T04:19:21;3.90;;;1.83;;
317;SDS011;146;53.448;10.228;2023-12-22T04:21:52;2.70;;;1.27;;
317;SDS011;146;53.448;10.228;2023-12-22T04:24:19;4.17;;;1.30;;
317;SDS011;146;53.448;10.228;2023-12-22T04:26:48;4.83;;;1.83;;
317;SDS011;146;53.448;10.228;2023-12-22T04:29:18;5.83;;;1.77;;
317;SDS011;146;53.448;10.228;2023-12-22T04:31:45;3.53;;;1.60;;
317;SDS011;146;53.448;10.228;2023-12-22T04:34:12;4.77;;;1.73;;
317;SDS011;146;53.448;10.228;2023-12-22T04:36:55;4.10;;;1.50;;
317;SDS011;146;53.448;10.228;2023-12-22T04:39:24;4.60;;;2.33;;
317;SDS011;146;53.448;10.228;2023-12-22T04:41:51;10.50;;;2.57;;
317;SDS011;146;53.448;10.228;2023-12-22T04:44:17;6.40;;;1.90;;
317;SDS011;146;53.448;10.228;2023-12-22T04:46:44;4.33;;;2.10;;
317;SDS011;146;53.448;10.228;2023-12-22T04:49:11;6.70;;;2.80;;
317;SDS011;146;53.448;10.228;2023-12-22T04:51:43;5.50;;;2.27;;
317;SDS011;146;53.448;10.228;2023-12-22T04:54:11;9.50;;;2.20;;
317;SDS011;146;53.448;10.228;2023-12-22T04:56:38;4.30;;;1.80;;
317;SDS011;146;53.448;10.228;2023-12-22T04:59:05;3.53;;;1.83;;
317;SDS011;146;53.448;10.228;2023-12-22T05:01:32;6.23;;;2.27;;
317;SDS011;146;53.448;10.228;2023-12-22T05:04:08;5.50;;;2.33;;
317;SDS011;146;53.448;10.228;2023-12-22T05:06:38;7.13;;;2.20;;
317;SDS011;146;53.448;10.228;2023-12-22T05:09:05;6.10;;;1.53;;
317;SDS011;146;53.448;10.228;2023-12-22T05:11:34;5.87;;;2.00;;
317;SDS011;146;53.448;10.228;2023-12-22T05:14:01;4.53;;;1.63;;
317;SDS011;146;53.448;10.228;2023-12-22T05:16:27;5.80;;;1.97;;
317;SDS011;146;53.448;10.228;2023-12-22T05:18:56;7.07;;;2.00;;
317;SDS011;146;53.448;10.228;2023-12-22T05:21:26;6.50;;;3.63;;
317;SDS011;146;53.448;10.228;2023-12-22T05:23:56;8.90;;;2.30;;
317;SDS011;146;53.448;10.228;2023-12-22T05:26:27;6.53;;;2.80;;
317;SDS011;146;53.448;10.228;2023-12-22T05:28:56;5.60;;;2.17;;
317;SDS011;146;53.448;10.228;2023-12-22T05:31:23;6.27;;;2.50;;
317;SDS011;146;53.448;10.228;2023-12-22T05:33:53;4.20;;;1.83;;
317;SDS011;146;53.448;10.228;2023-12-22T05:36:20;3.90;;;2.17;;
317;SDS011;146;53.448;10.228;2023-12-22T05:38:47;8.57;;;2.97;;
317;SDS011;146;53.448;10.228;2023-12-22T05:44:20;8.43;;;2.50;;
317;SDS011;146;53.448;10.228;2023-12-22T05:47:03;4.40;;;1.80;;
317;SDS011;146;53.448;10.228;2023-12-22T05:49:30;6.97;;;2.00;;
317;SDS011;146;53.448;10.228;2023-12-22T05:51:57;8.50;;;2.67;;
317;SDS011;146;53.448;10.228;2023-12-22T05:54:26;12.87;;;3.47;;
317;SDS011;146;53.448;10.228;2023-12-22T05:56:53;6.03;;;1.70;;
317;SDS011;146;53.448;10.228;2023-12-22T05:59:22;5.60;;;1.50;;
317;SDS011;146;53.448;10.228;2023-12-22T06:02:03;7.83;;;1.30;;
317;SDS011;146;53.448;10.228;2023-12-22T06:04:30;4.03;;;1.73;;
317;SDS011;146;53.448;10.228;2023-12-22T06:07:00;2.80;;;1.70;;
317;SDS011;146;53.448;10.228;2023-12-22T06:09:27;5.50;;;1.63;;
317;SDS011;146;53.448;10.228;2023-12-22T06:11:54;6.27;;;2.20;;
317;SDS011;146;53.448;10.228;2023-12-22T06:17:04;4.13;;;2.17;;
317;SDS011;146;53.448;10.228;2023-12-22T06:19:30;5.80;;;2.40;;
317;SDS011;146;53.448;10.228;2023-12-22T06:21:57;4.83;;;1.87;;
317;SDS011;146;53.448;10.228;2023-12-22T06:24:25;6.97;;;2.00;;
317;SDS011;146;53.448;10.228;2023-12-22T06:26:52;3.80;;;1.60;;
317;SDS011;146;53.448;10.228;2023-12-22T06:29:21;5.50;;;2.13;;
317;SDS011;146;53.448;10.228;2023-12-22T06:31:51;3.43;;;2.23;;
317;SDS011;146;53.448;10.228;2023-12-22T06:34:18;8.60;;;2.80;;
317;SDS011;146;53.448;10.228;2023-12-22T06:36:45;5.40;;;2.20;;
317;SDS011;146;53.448;10.228;2023-12-22T06:39:12;5.87;;;2.20;;
317;SDS011;146;53.448;10.228;2023-12-22T06:41:39;5.40;;;2.10;;
317;SDS011;146;53.448;10.228;2023-12-22T06:44:09;6.73;;;2.63;;
317;SDS011;146;53.448;10.228;2023-12-22T06:46:36;6.30;;;2.20;;
317;SDS011;146;53.448;10.228;2023-12-22T06:49:08;9.73;;;3.00;;
317;SDS011;146;53.448;10.228;2023-12-22T06:51:34;11.83;;;3.80;;
317;SDS011;146;53.448;10.228;2023-12-22T06:54:05;8.53;;;3.67;;
317;SDS011;146;53.448;10.228;2023-12-22T06:56:32;11.20;;;2.90;;
317;SDS011;146;53.448;10.228;2023-12-22T06:58:59;10.97;;;2.97;;
317;SDS011;146;53.448;10.228;2023-12-22T07:01:36;10.73;;;3.33;;
317;SDS011;146;53.448;10.228;2023-12-22T07:04:04;9.73;;;3.33;;
317;SDS011;146;53.448;10.228;2023-12-22T07:06:33;10.20;;;3.57;;
317;SDS011;146;53.448;10.228;2023-12-22T07:11:58;10.23;;;4.10;;
317;SDS011;146;53.448;10.228;2023-12-22T07:14:25;8.63;;;2.93;;
317;SDS011;146;53.448;10.228;2023-12-22T07:16:55;9.97;;;3.57;;
317;SDS011;146;53.448;10.228;2023-12-22T07:19:23;8.90;;;3.50;;
317;SDS011;146;53.448;10.228;2023-12-22T07:21:51;10.53;;;3.60;;
317;SDS011;146;53.448;10.228;2023-12-22T07:24:18;12.70;;;3.83;;
317;SDS011;146;53.448;10.228;2023-12-22T07:26:47;17.60;;;4.20;;
317;SDS011;146;53.448;10.228;2023-12-22T07:29:26;13.00;;;3.73;;
317;SDS011;146;53.448;10.228;2023-12-22T07:31:59;10.13;;;4.53;;
317;SDS011;146;53.448;10.228;2023-12-22T07:34:26;10.37;;;3.70;;
317;SDS011;146;53.448;10.228;2023-12-22T07:37:04;13.20;;;4.67;;
317;SDS011;146;53.448;10.228;2023-12-22T07:39:34;9.43;;;3.97;;
317;SDS011;146;53.448;10.228;2023-12-22T07:42:10;10.90;;;5.17;;
317;SDS011;146;53.448;10.228;2023-12-22T07:44:36;14.97;;;4.10;;
317;SDS011;146;53.448;10.228;2023-12-22T07:47:06;13.03;;;4.77;;
317;SDS011;146;53.448;10.228;2023-12-22T07:49:37;11.73;;;4.20;;
317;SDS011;146;53.448;10.228;2023-12-22T07:52:08;11.27;;;3.80;;
317;SDS011;146;53.448;10.228;2023-12-22T07:54:42;10.27;;;3.73;;
317;SDS011;146;53.448;10.228;2023-12-22T07:57:12;9.43;;;3.77;;
317;SDS011;146;53.448;10.228;2023-12-22T07:59:42;5.87;;;2.37;;
317;SDS011;146;53.448;10.228;2023-12-22T08:02:08;8.20;;;2.97;;
317;SDS011;146;53.448;10.228;2023-12-22T08:04:38;5.90;;;2.17;;
317;SDS011;146;53.448;10.228;2023-12-22T08:07:06;6.53;;;2.40;;
317;SDS011;146;53.448;10.228;2023-12-22T08:09:47;8.60;;;2.57;;
317;SDS011;146;53.448;10.228;2023-12-22T08:12:20;6.77;;;3.17;;
317;SDS011;146;53.448;10.228;2023-12-22T08:14:47;9.80;;;3.67;;
317;SDS011;146;53.448;10.228;2023-12-22T08:17:13;8.43;;;2.60;;
317;SDS011;146;53.448;10.228;2023-12-22T08:19:40;8.20;;;3.63;;
317;SDS011;146;53.448;10.228;2023-12-22T08:22:08;8.83;;;3.43;;
317;SDS011;146;53.448;10.228;2023-12-22T08:24:37;7.10;;;2.90;;
317;SDS011;146;53.448;10.228;2023-12-22T08:27:04;8.67;;;3.10;;
317;SDS011;146;53.448;10.228;2023-12-22T08:29:31;7.40;;;2.40;;
317;SDS011;146;53.448;10.228;2023-12-22T08:31:58;7.20;;;2.90;;
317;SDS011;146;53.448;10.228;2023-12-22T08:34:25;7.50;;;2.50;;
317;SDS011;146;53.448;10.228;2023-12-22T08:36:52;6.40;;;2.00;;
317;SDS011;146;53.448;10.228;2023-12-22T08:39:22;6.63;;;2.63;;
317;SDS011;146;53.448;10.228;2023-12-22T08:41:51;8.90;;;3.00;;
317;SDS011;146;53.448;10.228;2023-12-22T08:44:18;8.57;;;2.00;;
317;SDS011;146;53.448;10.228;2023-12-22T08:46:45;6.07;;;2.87;;
317;SDS011;146;53.448;10.228;2023-12-22T08:49:12;7.40;;;2.93;;
317;SDS011;146;53.448;10.228;2023-12-22T08:51:39;10.57;;;3.80;;
317;SDS011;146;53.448;10.228;2023-12-22T08:54:09;11.43;;;4.40;;
317;SDS011;146;53.448;10.228;2023-12-22T08:56:36;8.53;;;3.80;;
317;SDS011;146;53.448;10.228;2023-12-22T08:59:07;7.07;;;3.27;;
317;SDS011;146;53.448;10.228;2023-12-22T09:01:38;11.20;;;4.60;;
317;SDS011;146;53.448;10.228;2023-12-22T09:04:06;14.77;;;4.40;;
317;SDS011;146;53.448;10.228;2023-12-22T09:06:32;13.20;;;3.87;;
317;SDS011;146;53.448;10.228;2023-12-22T09:09:02;8.07;;;3.27;;
317;SDS011;146;53.448;10.228;2023-12-22T09:11:29;11.43;;;3.90;;
317;SDS011;146;53.448;10.228;2023-12-22T09:13:56;5.60;;;2.47;;
317;SDS011;146;53.448;10.228;2023-12-22T09:16:24;6.00;;;2.27;;
317;SDS011;146;53.448;10.228;2023-12-22T09:18:51;5.00;;;2.37;;
317;SDS011;146;53.448;10.228;2023-12-22T09:21:19;8.00;;;2.60;;
317;SDS011;146;53.448;10.228;2023-12-22T09:26:28;8.03;;;2.30;;
317;SDS011;146;53.448;10.228;2023-12-22T09:28:54;8.67;;;2.57;;
317;SDS011;146;53.448;10.228;2023-12-22T09:31:21;6.80;;;1.80;;
317;SDS011;146;53.448;10.228;2023-12-22T09:37:17;8.33;;;2.20;;
317;SDS011;146;53.448;10.228;2023-12-22T09:39:45;10.60;;;2.30;;
317;SDS011;146;53.448;10.228;2023-12-22T09:42:12;5.13;;;1.93;;
317;SDS011;146;53.448;10.228;2023-12-22T09:44:46;6.07;;;1.90;;
317;SDS011;146;53.448;10.228;2023-12-22T09:47:19;7.03;;;2.20;;
317;SDS011;146;53.448;10.228;2023-12-22T09:49:48;7.00;;;2.30;;
317;SDS011;146;53.448;10.228;2023-12-22T09:52:22;6.83;;;2.67;;
317;SDS011;146;53.448;10.228;2023-12-22T09:54:50;8.13;;;2.47;;
317;SDS011;146;53.448;10.228;2023-12-22T09:57:20;7.97;;;2.30;;
317;SDS011;146;53.448;10.228;2023-12-22T09:59:50;6.90;;;1.90;;
317;SDS011;146;53.448;10.228;2023-12-22T10:02:21;5.17;;;2.03;;
317;SDS011;146;53.448;10.228;2023-12-22T10:04:51;6.77;;;2.73;;
317;SDS011;146;53.448;10.228;2023-12-22T10:07:18;10.77;;;2.60;;
317;SDS011;146;53.448;10.228;2023-12-22T10:09:48;4.77;;;2.30;;
317;SDS011;146;53.448;10.228;2023-12-22T10:12:16;9.83;;;3.30;;
317;SDS011;146;53.448;10.228;2023-12-22T10:14:47;9.80;;;2.40;;
317;SDS011;146;53.448;10.228;2023-12-22T10:17:20;8.03;;;3.00;;
317;SDS011;146;53.448;10.228;2023-12-22T10:19:51;8.00;;;2.73;;
317;SDS011;146;53.448;10.228;2023-12-22T10:22:18;8.13;;;3.37;;
317;SDS011;146;53.448;10.228;2023-12-22T10:24:49;6.73;;;2.97;;
317;SDS011;146;53.448;10.228;2023-12-22T10:27:17;9.43;;;2.80;;
317;SDS011;146;53.448;10.228;2023-12-22T10:29:47;12.40;;;2.97;;
317;SDS011;146;53.448;10.228;2023-12-22T10:32:15;7.70;;;2.80;;
317;SDS011;146;53.448;10.228;2023-12-22T10:34:42;5.93;;;2.50;;
317;SDS011;146;53.448;10.228;2023-12-22T10:37:13;10.97;;;3.53;;
317;SDS011;146;53.448;10.228;2023-12-22T10:39:40;8.20;;;3.27;;
317;SDS011;146;53.448;10.228;2023-12-22T10:42:07;9.00;;;2.73;;
317;SDS011;146;53.448;10.228;2023-12-22T10:44:35;11.57;;;3.43;;
317;SDS011;146;53.448;10.228;2023-12-22T10:47:07;4.73;;;2.70;;
317;SDS011;146;53.448;10.228;2023-12-22T10:49:34;11.50;;;3.90;;
317;SDS011;146;53.448;10.228;2023-12-22T10:52:06;5.33;;;2.20;;
317;SDS011;146;53.448;10.228;2023-12-22T10:54:37;11.37;;;2.70;;
317;SDS011;146;53.448;10.228;2023-12-22T10:57:04;6.30;;;2.00;;
317;SDS011;146;53.448;10.228;2023-12-22T10:59:31;7.93;;;2.53;;
317;SDS011;146;53.448;10.228;2023-12-22T11:02:03;5.63;;;2.30;;
317;SDS011;146;53.448;10.228;2023-12-22T11:04:32;10.47;;;2.23;;
317;SDS011;146;53.448;10.228;2023-12-22T11:07:03;8.70;;;2.97;;
317;SDS011;146;53.448;10.228;2023-12-22T11:09:32;7.23;;;2.60;;
317;SDS011;146;53.448;10.228;2023-12-22T11:12:05;5.80;;;2.20;;
317;SDS011;146;53.448;10.228;2023-12-22T11:14:36;5.13;;;3.30;;
317;SDS011;146;53.448;10.228;2023-12-22T11:17:05;11.47;;;4.07;;
317;SDS011;146;53.448;10.228;2023-12-22T11:19:34;8.40;;;3.07;;
317;SDS011;146;53.448;10.228;2023-12-22T11:22:08;5.23;;;2.80;;
317;SDS011;146;53.448;10.228;2023-12-22T11:24:36;9.07;;;2.80;;
317;SDS011;146;53.448;10.228;2023-12-22T11:27:07;7.13;;;2.70;;
317;SDS011;146;53.448;10.228;2023-12-22T11:29:35;8.13;;;2.80;;
317;SDS011;146;53.448;10.228;2023-12-22T11:32:04;6.57;;;2.83;;
317;SDS011;146;53.448;10.228;2023-12-22T11:34:33;11.70;;;3.77;;
317;SDS011;146;53.448;10.228;2023-12-22T11:37:04;9.37;;;2.27;;
317;SDS011;146;53.448;10.228;2023-12-22T11:39:33;4.13;;;1.67;;
317;SDS011;146;53.448;10.228;2023-12-22T11:42:01;9.20;;;2.03;;
317;SDS011;146;53.448;10.228;2023-12-22T11:44:31;4.10;;;1.80;;
317;SDS011;146;53.448;10.228;2023-12-22T11:47:04;3.20;;;1.60;;
317;SDS011;146;53.448;10.228;2023-12-22T11:49:32;5.83;;;2.17;;
317;SDS011;146;53.448;10.228;2023-12-22T11:52:08;6.30;;;1.83;;
317;SDS011;146;53.448;10.228;2023-12-22T11:54:44;4.67;;;2.30;;
317;SDS011;146;53.448;10.228;2023-12-22T11:57:32;7.63;;;2.80;;
317;SDS011;146;53.448;10.228;2023-12-22T12:00:02;4.57;;;2.70;;
317;SDS011;146;53.448;10.228;2023-12-22T12:02:37;8.50;;;2.30;;
317;SDS011;146;53.448;10.228;2023-12-22T12:05:06;6.43;;;2.27;;
317;SDS011;146;53.448;10.228;2023-12-22T12:07:44;6.87;;;2.67;;
317;SDS011;146;53.448;10.228;2023-12-22T12:10:13;11.20;;;2.83;;
317;SDS011;146;53.448;10.228;2023-12-22T12:13:04;8.97;;;2.57;;
317;SDS011;146;53.448;10.228;2023-12-22T12:15:32;8.03;;;2.57;;
317;SDS011;146;53.448;10.228;2023-12-22T12:18:06;8.17;;;3.00;;
317;SDS011;146;53.448;10.228;2023-12-22T12:20:38;13.50;;;3.50;;
317;SDS011;146;53.448;10.228;2023-12-22T12:23:14;7.73;;;3.60;;
317;SDS011;146;53.448;10.228;2023-12-22T12:25:42;9.37;;;2.97;;
317;SDS011;146;53.448;10.228;2023-12-22T12:28:09;10.37;;;3.13;;
317;SDS011;146;53.448;10.228;2023-12-22T12:30:39;9.50;;;2.50;;
317;SDS011;146;53.448;10.228;2023-12-22T12:33:06;5.00;;;2.33;;
317;SDS011;146;53.448;10.228;2023-12-22T12:35:37;8.90;;;2.60;;
317;SDS011;146;53.448;10.228;2023-12-22T12:38:13;9.10;;;3.50;;
317;SDS011;146;53.448;10.228;2023-12-22T12:40:44;5.63;;;2.60;;
317;SDS011;146;53.448;10.228;2023-12-22T12:43:17;10.30;;;3.57;;
317;SDS011;146;53.448;10.228;2023-12-22T12:46:03;7.33;;;2.67;;
317;SDS011;146;53.448;10.228;2023-12-22T12:48:39;11.53;;;3.37;;
317;SDS011;146;53.448;10.228;2023-12-22T12:51:35;11.70;;;3.50;;
317;SDS011;146;53.448;10.228;2023-12-22T12:54:03;13.73;;;3.40;;
317;SDS011;146;53.448;10.228;2023-12-22T12:56:38;13.47;;;4.07;;
317;SDS011;146;53.448;10.228;2023-12-22T12:59:14;10.80;;;3.20;;
317;SDS011;146;53.448;10.228;2023-12-22T13:01:47;9.80;;;3.20;;
317;SDS011;146;53.448;10.228;2023-12-22T13:04:14;8.63;;;2.97;;
317;SDS011;146;53.448;10.228;2023-12-22T13:07:02;11.77;;;2.80;;
317;SDS011;146;53.448;10.228;2023-12-22T13:09:35;9.50;;;3.23;;
317;SDS011;146;53.448;10.228;2023-12-22T13:12:02;8.60;;;3.40;;
317;SDS011;146;53.448;10.228;2023-12-22T13:14:30;9.30;;;2.77;;
317;SDS011;146;53.448;10.228;2023-12-22T13:16:58;9.50;;;3.10;;
317;SDS011;146;53.448;10.228;2023-12-22T13:19:25;10.70;;;3.07;;
317;SDS011;146;53.448;10.228;2023-12-22T13:21:55;7.23;;;2.80;;
317;SDS011;146;53.448;10.228;2023-12-22T13:24:22;8.67;;;2.80;;
317;SDS011;146;53.448;10.228;2023-12-22T13:27:00;13.73;;;2.67;;
317;SDS011;146;53.448;10.228;2023-12-22T13:32:33;6.33;;;2.30;;
317;SDS011;146;53.448;10.228;2023-12-22T13:35:05;11.27;;;2.60;;
317;SDS011;146;53.448;10.228;2023-12-22T13:37:39;4.83;;;2.90;;
317;SDS011;146;53.448;10.228;2023-12-22T13:40:10;8.07;;;2.00;;
317;SDS011;146;53.448;10.228;2023-12-22T13:42:38;11.13;;;2.17;;
317;SDS011;146;53.448;10.228;2023-12-22T13:45:11;4.23;;;1.90;;
317;SDS011;146;53.448;10.228;2023-12-22T13:47:43;9.87;;;2.43;;
317;SDS011;146;53.448;10.228;2023-12-22T13:50:14;6.00;;;2.53;;
317;SDS011;146;53.448;10.228;2023-12-22T13:53:07;5.57;;;2.17;;
317;SDS011;146;53.448;10.228;2023-12-22T13:55:35;6.13;;;1.93;;
317;SDS011;146;53.448;10.228;2023-12-22T13:58:04;11.63;;;2.30;;
317;SDS011;146;53.448;10.228;2023-12-22T14:00:31;8.47;;;2.23;;
317;SDS011;146;53.448;10.228;2023-12-22T14:03:00;7.73;;;2.40;;
317;SDS011;146;53.448;10.228;2023-12-22T14:05:31;5.40;;;2.20;;
317;SDS011;146;53.448;10.228;2023-12-22T14:08:01;9.67;;;2.63;;
317;SDS011;146;53.448;10.228;2023-12-22T14:10:28;5.73;;;2.70;;
317;SDS011;146;53.448;10.228;2023-12-22T14:13:13;15.50;;;7.23;;
317;SDS011;146;53.448;10.228;2023-12-22T14:15:41;6.57;;;2.60;;
317;SDS011;146;53.448;10.228;2023-12-22T14:18:13;5.53;;;2.83;;
317;SDS011;146;53.448;10.228;2023-12-22T14:20:43;12.40;;;2.97;;
317;SDS011;146;53.448;10.228;2023-12-22T14:23:14;3.70;;;1.87;;
317;SDS011;146;53.448;10.228;2023-12-22T14:25:48;6.27;;;2.13;;
317;SDS011;146;53.448;10.228;2023-12-22T14:28:15;8.50;;;3.10;;
317;SDS011;146;53.448;10.228;2023-12-22T14:30:44;9.90;;;3.50;;
317;SDS011;146;53.448;10.228;2023-12-22T14:33:13;8.00;;;2.90;;
317;SDS011;146;53.448;10.228;2023-12-22T14:35:40;13.17;;;3.03;;
317;SDS011;146;53.448;10.228;2023-12-22T14:38:07;12.07;;;2.67;;
317;SDS011;146;53.448;10.228;2023-12-22T14:40:43;4.53;;;2.27;;
317;SDS011;146;53.448;10.228;2023-12-22T14:43:10;7.93;;;3.13;;
317;SDS011;146;53.448;10.228;2023-12-22T14:46:21;7.80;;;2.50;;
317;SDS011;146;53.448;10.228;2023-12-22T14:49:25;8.30;;;2.90;;
317;SDS011;146;53.448;10.228;2023-12-22T14:51:54;11.03;;;3.07;;
317;SDS011;146;53.448;10.228;2023-12-22T14:54:25;6.10;;;2.20;;
317;SDS011;146;53.448;10.228;2023-12-22T14:56:57;8.93;;;2.43;;
317;SDS011;146;53.448;10.228;2023-12-22T15:01:43;10.63;;;3.53;;
317;SDS011;146;53.448;10.228;2023-12-22T15:02:32;4.60;;;2.13;;
317;SDS011;146;53.448;10.228;2023-12-22T15:08:30;9.70;;;2.10;;
317;SDS011;146;53.448;10.228;2023-12-22T15:10:57;10.00;;;2.50;;
317;SDS011;146;53.448;10.228;2023-12-22T15:13:24;6.97;;;2.60;;
317;SDS011;146;53.448;10.228;2023-12-22T15:16:03;11.10;;;2.07;;
317;SDS011;146;53.448;10.228;2023-12-22T15:18:30;6.87;;;2.47;;
317;SDS011;146;53.448;10.228;2023-12-22T15:20:57;6.17;;;2.20;;
317;SDS011;146;53.448;10.228;2023-12-22T15:26:19;4.73;;;2.00;;
317;SDS011;146;53.448;10.228;2023-12-22T15:28:46;5.80;;;2.67;;
317;SDS011;146;53.448;10.228;2023-12-22T15:31:14;5.83;;;2.20;;
317;SDS011;146;53.448;10.228;2023-12-22T15:33:42;4.47;;;2.17;;
317;SDS011;146;53.448;10.228;2023-12-22T15:36:16;3.77;;;2.10;;
317;SDS011;146;53.448;10.228;2023-12-22T15:38:45;4.73;;;2.30;;
317;SDS011;146;53.448;10.228;2023-12-22T15:41:15;5.40;;;2.53;;
317;SDS011;146;53.448;10.228;2023-12-22T15:43:42;7.73;;;2.30;;
317;SDS011;146;53.448;10.228;2023-12-22T15:46:09;7.17;;;3.10;;
317;SDS011;146;53.448;10.228;2023-12-22T15:48:36;6.53;;;2.23;;
317;SDS011;146;53.448;10.228;2023-12-22T15:51:07;8.60;;;2.20;;
317;SDS011;146;53.448;10.228;2023-12-22T15:53:59;7.20;;;2.30;;
317;SDS011;146;53.448;10.228;2023-12-22T15:56:26;6.70;;;2.37;;
317;SDS011;146;53.448;10.228;2023-12-22T15:58:52;7.50;;;2.63;;
317;SDS011;146;53.448;10.228;2023-12-22T16:01:20;7.40;;;2.60;;
317;SDS011;146;53.448;10.228;2023-12-22T16:03:51;5.27;;;2.33;;
317;SDS011;146;53.448;10.228;2023-12-22T16:06:18;13.13;;;2.97;;
317;SDS011;146;53.448;10.228;2023-12-22T16:08:45;13.57;;;2.70;;